sensor_id;sensor_type;location;lat;lon;timestamp;temperature;humidity
33927;DHT22;20485;50.992;5.550;2022-08-19T02:58:01;15.20;99.90
33927;DHT22;20485;50.992;5.550;2022-08-19T03:00:27;15.30;99.90
33927;DHT22;20485;50.992;5.550;2022-08-19T03:02:53;15.30;99.90
33927;DHT22;20485;50.992;5.550;2022-08-19T03:05:19;15.20;99.90
33927;DHT22;20485;50.992;5.550;2022-08-19T03:07:45;15.20;99.90
33927;DHT22;20485;50.992;5.550;2022-08-19T03:10:12;15.20;99.90
33927;DHT22;20485;50.992;5.550;2022-08-19T03:12:38;15.20;99.90
33927;DHT22;20485;50.992;5.550;2022-08-19T03:15:06;15.20;99.90
33927;DHT22;20485;50.992;5.550;2022-08-19T03:17:33;15.20;99.90
33927;DHT22;20485;50.992;5.550;2022-08-19T03:19:59;15.20;99.90
33927;DHT22;20485;50.992;5.550;2022-08-19T03:22:25;15.20;99.90
33927;DHT22;20485;50.992;5.550;2022-08-19T03:24:51;15.20;99.90
33927;DHT22;20485;50.992;5.550;2022-08-19T03:27:16;15.20;99.90
33927;DHT22;20485;50.992;5.550;2022-08-19T03:29:43;15.20;99.90
33927;DHT22;20485;50.992;5.550;2022-08-19T03:32:09;15.20;99.90
33927;DHT22;20485;50.992;5.550;2022-08-19T03:34:37;15.20;99.90
33927;DHT22;20485;50.992;5.550;2022-08-19T03:37:09;15.20;99.90
33927;DHT22;20485;50.992;5.550;2022-08-19T03:39:37;15.20;99.90
33927;DHT22;20485;50.992;5.550;2022-08-19T03:42:14;15.10;99.90
33927;DHT22;20485;50.992;5.550;2022-08-19T03:44:42;15.10;99.90
33927;DHT22;20485;50.992;5.550;2022-08-19T03:47:09;15.10;99.90
33927;DHT22;20485;50.992;5.550;2022-08-19T03:49:41;15.10;99.90
33927;DHT22;20485;50.992;5.550;2022-08-19T03:52:13;15.10;99.90
33927;DHT22;20485;50.992;5.550;2022-08-19T03:54:42;15.10;99.90
33927;DHT22;20485;50.992;5.550;2022-08-19T03:57:08;15.10;99.90
33927;DHT22;20485;50.992;5.550;2022-08-19T03:59:35;15.10;99.90
33927;DHT22;20485;50.992;5.550;2022-08-19T04:02:09;15.10;99.90
33927;DHT22;20485;50.992;5.550;2022-08-19T04:04:36;15.10;99.90
33927;DHT22;20485;50.992;5.550;2022-08-19T04:07:09;15.10;99.90
33927;DHT22;20485;50.992;5.550;2022-08-19T04:09:36;15.10;99.90
33927;DHT22;20485;50.992;5.550;2022-08-19T04:12:03;15.10;99.90
33927;DHT22;20485;50.992;5.550;2022-08-19T04:14:30;15.00;99.90
33927;DHT22;20485;50.992;5.550;2022-08-19T04:16:58;15.00;99.90
33927;DHT22;20485;50.992;5.550;2022-08-19T04:19:24;14.90;99.90
33927;DHT22;20485;50.992;5.550;2022-08-19T04:21:52;15.00;99.90
33927;DHT22;20485;50.992;5.550;2022-08-19T04:24:18;15.00;99.90
33927;DHT22;20485;50.992;5.550;2022-08-19T04:26:45;15.00;99.90
33927;DHT22;20485;50.992;5.550;2022-08-19T04:29:15;15.00;99.90
33927;DHT22;20485;50.992;5.550;2022-08-19T04:31:43;14.90;99.90
33927;DHT22;20485;50.992;5.550;2022-08-19T04:34:11;15.00;99.90
33927;DHT22;20485;50.992;5.550;2022-08-19T04:36:39;15.00;99.90
33927;DHT22;20485;50.992;5.550;2022-08-19T04:39:10;15.00;99.90
33927;DHT22;20485;50.992;5.550;2022-08-19T04:41:36;15.00;99.90
33927;DHT22;20485;50.992;5.550;2022-08-19T04:44:21;15.00;99.90
33927;DHT22;20485;50.992;5.550;2022-08-19T04:46:48;15.00;99.90
33927;DHT22;20485;50.992;5.550;2022-08-19T04:49:15;15.00;99.90
33927;DHT22;20485;50.992;5.550;2022-08-19T04:51:43;15.00;99.90
33927;DHT22;20485;50.992;5.550;2022-08-19T04:54:09;15.00;99.90
33927;DHT22;20485;50.992;5.550;2022-08-19T05:03:51;15.00;99.90
33927;DHT22;20485;50.992;5.550;2022-08-19T05:06:19;15.10;99.90
33927;DHT22;20485;50.992;5.550;2022-08-19T05:08:46;15.10;99.90
33927;DHT22;20485;50.992;5.550;2022-08-19T05:11:19;15.10;99.90
33927;DHT22;20485;50.992;5.550;2022-08-19T05:13:56;15.10;99.90
33927;DHT22;20485;50.992;5.550;2022-08-19T05:16:26;15.10;99.90
33927;DHT22;20485;50.992;5.550;2022-08-19T05:18:52;15.10;99.90
33927;DHT22;20485;50.992;5.550;2022-08-19T05:21:36;15.10;99.90
33927;DHT22;20485;50.992;5.550;2022-08-19T05:24:22;15.20;99.90
33927;DHT22;20485;50.992;5.550;2022-08-19T05:26:50;15.20;99.90
33927;DHT22;20485;50.992;5.550;2022-08-19T05:29:20;15.20;99.90
33927;DHT22;20485;50.992;5.550;2022-08-19T05:31:47;15.20;99.90
33927;DHT22;20485;50.992;5.550;2022-08-19T05:34:15;15.30;99.90
33927;DHT22;20485;50.992;5.550;2022-08-19T05:36:44;15.40;99.90
33927;DHT22;20485;50.992;5.550;2022-08-19T05:39:16;15.40;99.90
33927;DHT22;20485;50.992;5.550;2022-08-19T05:41:44;15.50;99.90
33927;DHT22;20485;50.992;5.550;2022-08-19T05:44:11;15.50;99.90
33927;DHT22;20485;50.992;5.550;2022-08-19T05:46:38;15.60;99.90
33927;DHT22;20485;50.992;5.550;2022-08-19T05:49:06;15.70;99.90
33927;DHT22;20485;50.992;5.550;2022-08-19T05:51:35;15.80;99.90
33927;DHT22;20485;50.992;5.550;2022-08-19T05:54:03;16.00;99.90
33927;DHT22;20485;50.992;5.550;2022-08-19T05:56:31;16.10;99.90
33927;DHT22;20485;50.992;5.550;2022-08-19T05:58:57;16.20;99.90
33927;DHT22;20485;50.992;5.550;2022-08-19T06:01:29;16.30;99.90
33927;DHT22;20485;50.992;5.550;2022-08-19T06:03:55;16.40;99.90
33927;DHT22;20485;50.992;5.550;2022-08-19T06:06:21;16.40;99.90
33927;DHT22;20485;50.992;5.550;2022-08-19T06:08:47;16.50;99.90
33927;DHT22;20485;50.992;5.550;2022-08-19T06:13:46;16.60;99.90
33927;DHT22;20485;50.992;5.550;2022-08-19T06:16:17;16.70;99.90
33927;DHT22;20485;50.992;5.550;2022-08-19T06:18:46;16.70;99.90
33927;DHT22;20485;50.992;5.550;2022-08-19T06:21:12;16.80;99.90
33927;DHT22;20485;50.992;5.550;2022-08-19T06:23:37;16.90;99.90
33927;DHT22;20485;50.992;5.550;2022-08-19T06:26:04;16.90;99.90
33927;DHT22;20485;50.992;5.550;2022-08-19T06:28:29;16.80;99.90
33927;DHT22;20485;50.992;5.550;2022-08-19T06:30:55;16.90;99.90
33927;DHT22;20485;50.992;5.550;2022-08-19T06:33:21;16.90;99.90
33927;DHT22;20485;50.992;5.550;2022-08-19T06:35:46;17.00;99.90
33927;DHT22;20485;50.992;5.550;2022-08-19T06:38:16;17.00;99.90
33927;DHT22;20485;50.992;5.550;2022-08-19T06:40:42;17.00;99.90
33927;DHT22;20485;50.992;5.550;2022-08-19T06:43:07;17.00;99.90
33927;DHT22;20485;50.992;5.550;2022-08-19T06:45:33;17.00;99.90
33927;DHT22;20485;50.992;5.550;2022-08-19T06:48:00;17.10;99.90
33927;DHT22;20485;50.992;5.550;2022-08-19T06:50:29;17.00;99.90
33927;DHT22;20485;50.992;5.550;2022-08-19T06:52:55;17.10;99.90
33927;DHT22;20485;50.992;5.550;2022-08-19T06:55:28;17.20;99.90
33927;DHT22;20485;50.992;5.550;2022-08-19T06:57:54;17.20;99.90
33927;DHT22;20485;50.992;5.550;2022-08-19T07:00:27;17.40;99.90
33927;DHT22;20485;50.992;5.550;2022-08-19T07:02:52;17.50;99.90
33927;DHT22;20485;50.992;5.550;2022-08-19T07:05:22;17.50;99.90
33927;DHT22;20485;50.992;5.550;2022-08-19T07:07:47;17.50;99.90
33927;DHT22;20485;50.992;5.550;2022-08-19T07:10:13;17.60;99.90
33927;DHT22;20485;50.992;5.550;2022-08-19T07:12:39;17.70;99.90
33927;DHT22;20485;50.992;5.550;2022-08-19T07:15:06;17.80;99.90
33927;DHT22;20485;50.992;5.550;2022-08-19T07:17:34;17.80;99.90
33927;DHT22;20485;50.992;5.550;2022-08-19T07:20:03;17.80;99.90
33927;DHT22;20485;50.992;5.550;2022-08-19T07:22:29;17.90;99.90
33927;DHT22;20485;50.992;5.550;2022-08-19T07:24:54;17.90;99.90
33927;DHT22;20485;50.992;5.550;2022-08-19T07:27:21;18.00;99.90
33927;DHT22;20485;50.992;5.550;2022-08-19T07:29:53;18.20;99.90
33927;DHT22;20485;50.992;5.550;2022-08-19T07:32:19;18.30;99.90
33927;DHT22;20485;50.992;5.550;2022-08-19T07:34:44;18.50;99.90
33927;DHT22;20485;50.992;5.550;2022-08-19T07:37:10;18.50;99.90
33927;DHT22;20485;50.992;5.550;2022-08-19T07:39:40;18.50;99.90
33927;DHT22;20485;50.992;5.550;2022-08-19T17:22:38;22.10;99.90
33927;DHT22;20485;50.992;5.550;2022-08-19T17:25:04;21.90;99.90
33927;DHT22;20485;50.992;5.550;2022-08-19T17:27:30;21.80;99.90
33927;DHT22;20485;50.992;5.550;2022-08-19T17:29:56;21.70;99.90
33927;DHT22;20485;50.992;5.550;2022-08-19T17:32:24;21.80;99.90
33927;DHT22;20485;50.992;5.550;2022-08-19T17:34:51;21.80;99.90
33927;DHT22;20485;50.992;5.550;2022-08-19T17:37:21;21.80;99.90
33927;DHT22;20485;50.992;5.550;2022-08-19T17:39:47;21.70;99.90
33927;DHT22;20485;50.992;5.550;2022-08-19T17:42:13;21.60;99.90
33927;DHT22;20485;50.992;5.550;2022-08-19T17:44:38;21.60;99.90
33927;DHT22;20485;50.992;5.550;2022-08-19T17:47:05;21.60;99.90
33927;DHT22;20485;50.992;5.550;2022-08-19T17:49:30;21.60;99.90
33927;DHT22;20485;50.992;5.550;2022-08-19T17:51:56;21.50;99.90
33927;DHT22;20485;50.992;5.550;2022-08-19T17:54:24;21.40;99.90
33927;DHT22;20485;50.992;5.550;2022-08-19T17:56:49;21.50;99.90
33927;DHT22;20485;50.992;5.550;2022-08-19T17:59:18;21.40;99.90
33927;DHT22;20485;50.992;5.550;2022-08-19T18:01:45;21.40;99.90
33927;DHT22;20485;50.992;5.550;2022-08-19T18:04:11;21.30;99.90
33927;DHT22;20485;50.992;5.550;2022-08-19T18:06:37;21.30;99.90
33927;DHT22;20485;50.992;5.550;2022-08-19T18:09:04;21.10;99.90
33927;DHT22;20485;50.992;5.550;2022-08-19T18:11:31;21.10;99.90
33927;DHT22;20485;50.992;5.550;2022-08-19T18:13:57;21.00;99.90
33927;DHT22;20485;50.992;5.550;2022-08-19T18:16:26;21.00;99.90
33927;DHT22;20485;50.992;5.550;2022-08-19T18:18:51;20.90;99.90
33927;DHT22;20485;50.992;5.550;2022-08-19T20:27:27;19.70;99.90
33927;DHT22;20485;50.992;5.550;2022-08-19T20:29:53;19.70;99.90
33927;DHT22;20485;50.992;5.550;2022-08-19T20:32:19;19.60;99.90
33927;DHT22;20485;50.992;5.550;2022-08-19T20:34:45;19.70;99.90
33927;DHT22;20485;50.992;5.550;2022-08-19T20:37:15;19.70;99.90
33927;DHT22;20485;50.992;5.550;2022-08-19T20:39:44;19.60;99.90
33927;DHT22;20485;50.992;5.550;2022-08-19T20:42:09;19.60;99.90
33927;DHT22;20485;50.992;5.550;2022-08-19T20:44:35;19.60;99.90
33927;DHT22;20485;50.992;5.550;2022-08-19T20:47:02;19.50;99.90
33927;DHT22;20485;50.992;5.550;2022-08-19T20:49:27;19.50;99.90
33927;DHT22;20485;50.992;5.550;2022-08-19T20:51:54;19.50;99.90
33927;DHT22;20485;50.992;5.550;2022-08-19T20:54:20;19.50;99.90
33927;DHT22;20485;50.992;5.550;2022-08-19T20:56:46;19.50;99.90
33927;DHT22;20485;50.992;5.550;2022-08-19T20:59:12;19.40;99.90
33927;DHT22;20485;50.992;5.550;2022-08-19T21:01:37;19.50;99.90
33927;DHT22;20485;50.992;5.550;2022-08-19T21:04:03;19.40;99.90
33927;DHT22;20485;50.992;5.550;2022-08-19T21:06:34;19.40;99.90
33927;DHT22;20485;50.992;5.550;2022-08-19T21:09:01;19.50;99.90
33927;DHT22;20485;50.992;5.550;2022-08-19T21:11:27;19.40;99.90
33927;DHT22;20485;50.992;5.550;2022-08-19T21:13:52;19.40;99.90
33927;DHT22;20485;50.992;5.550;2022-08-19T21:16:18;19.50;99.90
33927;DHT22;20485;50.992;5.550;2022-08-19T21:18:43;19.40;99.90
33927;DHT22;20485;50.992;5.550;2022-08-19T21:21:09;19.40;99.90
33927;DHT22;20485;50.992;5.550;2022-08-19T21:23:35;19.50;99.90
33927;DHT22;20485;50.992;5.550;2022-08-19T21:26:01;19.50;99.90
33927;DHT22;20485;50.992;5.550;2022-08-19T21:28:27;19.50;99.90
33927;DHT22;20485;50.992;5.550;2022-08-19T21:30:55;19.50;99.90
33927;DHT22;20485;50.992;5.550;2022-08-19T21:33:22;19.60;99.90
33927;DHT22;20485;50.992;5.550;2022-08-19T21:35:56;19.70;99.90
33927;DHT22;20485;50.992;5.550;2022-08-19T21:38:22;19.60;99.90
33927;DHT22;20485;50.992;5.550;2022-08-19T21:40:48;19.60;99.90
33927;DHT22;20485;50.992;5.550;2022-08-19T21:43:14;19.50;99.90
33927;DHT22;20485;50.992;5.550;2022-08-19T21:45:40;19.50;99.90
33927;DHT22;20485;50.992;5.550;2022-08-19T21:48:06;19.50;99.90
33927;DHT22;20485;50.992;5.550;2022-08-19T21:50:32;19.40;99.90
33927;DHT22;20485;50.992;5.550;2022-08-19T21:52:59;19.40;99.90
33927;DHT22;20485;50.992;5.550;2022-08-19T21:55:26;19.40;99.90
33927;DHT22;20485;50.992;5.550;2022-08-19T21:57:52;19.40;99.90
33927;DHT22;20485;50.992;5.550;2022-08-19T22:00:21;19.40;99.90
33927;DHT22;20485;50.992;5.550;2022-08-19T22:02:48;19.30;99.90
33927;DHT22;20485;50.992;5.550;2022-08-19T22:05:14;19.40;99.90
33927;DHT22;20485;50.992;5.550;2022-08-19T22:07:41;19.40;99.90
33927;DHT22;20485;50.992;5.550;2022-08-19T22:10:08;19.40;99.90
33927;DHT22;20485;50.992;5.550;2022-08-19T22:12:36;19.40;99.90
33927;DHT22;20485;50.992;5.550;2022-08-19T22:15:04;19.40;99.90
33927;DHT22;20485;50.992;5.550;2022-08-19T22:17:31;19.40;99.90
33927;DHT22;20485;50.992;5.550;2022-08-19T22:19:57;19.40;99.90
33927;DHT22;20485;50.992;5.550;2022-08-19T22:22:28;19.50;99.90
33927;DHT22;20485;50.992;5.550;2022-08-19T22:25:10;19.50;99.90
33927;DHT22;20485;50.992;5.550;2022-08-19T22:27:36;19.50;99.90
33927;DHT22;20485;50.992;5.550;2022-08-19T22:30:05;19.60;99.90
33927;DHT22;20485;50.992;5.550;2022-08-19T22:32:31;19.50;99.90
33927;DHT22;20485;50.992;5.550;2022-08-19T22:34:58;19.50;99.90
33927;DHT22;20485;50.992;5.550;2022-08-19T22:37:24;19.40;99.90
33927;DHT22;20485;50.992;5.550;2022-08-19T22:39:55;19.40;99.90
33927;DHT22;20485;50.992;5.550;2022-08-19T22:42:22;19.30;99.90
33927;DHT22;20485;50.992;5.550;2022-08-19T22:44:50;19.30;99.90
33927;DHT22;20485;50.992;5.550;2022-08-19T22:47:16;19.30;99.90
33927;DHT22;20485;50.992;5.550;2022-08-19T22:49:43;19.30;99.90
33927;DHT22;20485;50.992;5.550;2022-08-19T22:52:09;19.40;99.90
33927;DHT22;20485;50.992;5.550;2022-08-19T22:54:57;19.30;99.90
33927;DHT22;20485;50.992;5.550;2022-08-19T22:57:28;19.30;99.90
33927;DHT22;20485;50.992;5.550;2022-08-19T22:59:54;19.30;99.90
33927;DHT22;20485;50.992;5.550;2022-08-19T23:02:30;19.20;99.90
33927;DHT22;20485;50.992;5.550;2022-08-19T23:04:58;19.20;99.90
33927;DHT22;20485;50.992;5.550;2022-08-19T23:07:25;19.10;99.90
33927;DHT22;20485;50.992;5.550;2022-08-19T23:09:51;19.10;99.90
33927;DHT22;20485;50.992;5.550;2022-08-19T23:12:32;19.10;99.90
33927;DHT22;20485;50.992;5.550;2022-08-19T23:15:03;19.10;99.90
33927;DHT22;20485;50.992;5.550;2022-08-19T23:17:29;19.00;99.90
33927;DHT22;20485;50.992;5.550;2022-08-19T23:19:58;19.00;99.90
33927;DHT22;20485;50.992;5.550;2022-08-19T23:22:25;19.10;99.90
33927;DHT22;20485;50.992;5.550;2022-08-19T23:25:04;19.00;99.90
33927;DHT22;20485;50.992;5.550;2022-08-19T23:27:30;19.00;99.90
33927;DHT22;20485;50.992;5.550;2022-08-19T23:30:50;19.00;99.90
33927;DHT22;20485;50.992;5.550;2022-08-19T23:33:28;18.90;99.90
33927;DHT22;20485;50.992;5.550;2022-08-19T23:35:57;18.90;99.90
33927;DHT22;20485;50.992;5.550;2022-08-19T23:38:24;18.90;99.90
33927;DHT22;20485;50.992;5.550;2022-08-19T23:40:52;18.90;99.90
33927;DHT22;20485;50.992;5.550;2022-08-19T23:43:19;18.90;99.90
33927;DHT22;20485;50.992;5.550;2022-08-19T23:45:45;18.90;99.90
33927;DHT22;20485;50.992;5.550;2022-08-19T23:48:11;18.80;99.90
33927;DHT22;20485;50.992;5.550;2022-08-19T23:50:39;18.90;99.90
33927;DHT22;20485;50.992;5.550;2022-08-19T23:53:06;18.90;99.90
33927;DHT22;20485;50.992;5.550;2022-08-19T23:55:34;18.90;99.90
33927;DHT22;20485;50.992;5.550;2022-08-19T23:58:01;18.90;99.90
